Time;durP1;ratioP1;P1;durP2;ratioP2;P2;SDS_P1;SDS_P2;PMS_P1;PMS_P2;Temp;Humidity;BMP_temperature;BMP_pressure;BME280_temperature;BME280_humidity;BME280_pressure;Samples;Min_cycle;Max_cycle;Signal;HPM_P1;HPM_P2
2023/07/15 00:00:50;;;;;;;5.63;5.10;;;27.20;1.00;;;;;;5032869;28;20170;-60
2023/07/15 00:03:18;;;;;;;4.95;4.47;;;27.20;1.00;;;;;;5020685;28;20378;-60
2023/07/15 00:05:45;;;;;;;5.07;4.43;;;27.20;1.00;;;;;;5030942;28;20041;-60
2023/07/15 00:08:11;;;;;;;6.70;4.75;;;27.20;1.00;;;;;;5033125;28;20479;-60
2023/07/15 00:10:39;;;;;;;6.70;4.47;;;27.20;1.00;;;;;;5032726;28;20037;-60
2023/07/15 00:13:10;;;;;;;5.82;4.97;;;27.20;1.00;;;;;;5033396;28;20060;-60
2023/07/15 00:15:36;;;;;;;5.85;5.25;;;27.30;1.00;;;;;;5032507;28;20048;-60
2023/07/15 00:18:02;;;;;;;6.13;4.88;;;27.30;1.00;;;;;;5032012;28;20026;-60
2023/07/15 00:20:28;;;;;;;6.88;4.97;;;27.30;1.00;;;;;;5029993;28;20029;-60
2023/07/15 00:22:54;;;;;;;7.00;4.30;;;27.20;1.00;;;;;;5031231;28;20032;-60
2023/07/15 00:25:20;;;;;;;5.53;5.03;;;27.10;1.00;;;;;;5031763;28;20035;-60
2023/07/15 00:27:47;;;;;;;6.88;4.93;;;27.10;1.00;;;;;;5032235;28;20056;-60
2023/07/15 00:30:19;;;;;;;6.57;5.40;;;27.20;1.00;;;;;;5032100;28;20018;-60
2023/07/15 00:32:49;;;;;;;6.00;4.97;;;27.20;1.00;;;;;;5024347;28;20037;-60
2023/07/15 00:35:25;;;;;;;5.15;4.50;;;27.20;1.00;;;;;;5032436;28;20029;-60
2023/07/15 00:37:51;;;;;;;5.88;5.28;;;27.10;1.00;;;;;;5029644;28;20030;-60
2023/07/15 00:40:17;;;;;;;4.97;4.32;;;27.10;1.00;;;;;;5032996;28;20521;-60
2023/07/15 00:43:20;;;;;;;6.03;5.40;;;27.10;1.00;;;;;;5031832;28;20030;-60
2023/07/15 00:46:28;;;;;;;7.38;5.20;;;27.10;1.00;;;;;;5032818;28;20506;-60
2023/07/15 00:49:21;;;;;;;5.18;4.68;;;27.10;1.00;;;;;;5023369;28;20029;-60
2023/07/15 00:52:11;;;;;;;5.78;4.85;;;27.00;1.00;;;;;;5030334;28;20026;-60
2023/07/15 00:54:42;;;;;;;5.47;5.05;;;26.90;1.00;;;;;;5032004;28;20033;-60
2023/07/15 00:57:09;;;;;;;8.00;5.45;;;27.00;1.00;;;;;;5030272;28;20083;-60
2023/07/15 00:59:38;;;;;;;7.38;5.13;;;27.00;1.00;;;;;;5032747;28;20029;-60
2023/07/15 01:02:04;;;;;;;8.93;5.20;;;27.00;1.00;;;;;;5032113;28;20029;-60
2023/07/15 01:04:30;;;;;;;6.38;5.13;;;27.00;1.00;;;;;;5032751;28;20030;-60
2023/07/15 01:06:56;;;;;;;7.20;4.75;;;27.00;1.00;;;;;;5030050;28;20041;-60
2023/07/15 01:09:23;;;;;;;7.72;5.40;;;27.00;1.00;;;;;;5031756;28;20040;-60
2023/07/15 01:11:49;;;;;;;6.30;5.35;;;27.00;1.00;;;;;;5032560;28;20022;-60
2023/07/15 01:14:15;;;;;;;6.95;5.47;;;27.00;1.00;;;;;;5035370;28;20132;-60
2023/07/15 01:16:40;;;;;;;6.57;5.60;;;27.00;1.00;;;;;;5036640;28;20036;-60
2023/07/15 01:19:06;;;;;;;6.15;5.53;;;27.00;1.00;;;;;;5034264;28;20044;-60
2023/07/15 01:21:36;;;;;;;7.90;5.93;;;27.00;1.00;;;;;;5029039;28;20402;-60
2023/07/15 01:24:03;;;;;;;10.00;6.43;;;27.00;1.00;;;;;;5035966;28;20140;-60
2023/07/15 01:26:29;;;;;;;7.10;5.47;;;27.00;1.00;;;;;;5032648;28;20069;-59
2023/07/15 01:28:55;;;;;;;6.10;5.50;;;27.00;1.00;;;;;;5035412;28;20021;-60
2023/07/15 01:31:21;;;;;;;6.28;5.75;;;27.00;1.00;;;;;;5033976;28;20091;-60
2023/07/15 01:33:51;;;;;;;6.47;5.88;;;27.00;1.00;;;;;;5036057;28;20087;-60
2023/07/15 01:36:16;;;;;;;8.00;6.00;;;26.90;1.00;;;;;;5035275;28;20087;-60
2023/07/15 01:38:43;;;;;;;8.77;6.35;;;26.80;1.00;;;;;;5030547;28;20434;-60
2023/07/15 01:41:09;;;;;;;8.02;5.43;;;26.80;1.00;;;;;;5026588;28;20097;-60
2023/07/15 01:43:35;;;;;;;9.00;5.75;;;26.90;1.00;;;;;;5036213;28;20356;-60
2023/07/15 01:46:01;;;;;;;7.47;5.72;;;26.90;1.00;;;;;;5035203;28;20033;-60
2023/07/15 01:48:26;;;;;;;8.55;6.13;;;26.90;1.00;;;;;;5035942;28;20018;-60
2023/07/15 01:50:52;;;;;;;6.43;5.70;;;26.90;1.00;;;;;;5034858;28;20116;-60
2023/07/15 01:53:18;;;;;;;7.78;5.30;;;26.90;1.00;;;;;;5034819;28;20083;-60
2023/07/15 01:55:44;;;;;;;8.02;6.35;;;26.90;1.00;;;;;;5035743;28;20056;-60
2023/07/15 01:58:09;;;;;;;5.93;5.20;;;26.90;1.00;;;;;;5034682;28;20050;-60
2023/07/15 02:00:35;;;;;;;6.40;5.80;;;26.90;1.00;;;;;;5034533;28;20029;-60
2023/07/15 02:03:01;;;;;;;6.40;4.88;;;26.90;1.00;;;;;;5035823;28;20033;-60
2023/07/15 02:05:26;;;;;;;8.50;5.65;;;26.90;1.00;;;;;;5034629;28;20029;-60
2023/07/15 02:07:52;;;;;;;7.28;5.32;;;26.80;1.00;;;;;;5034107;28;20029;-60
2023/07/15 02:10:18;;;;;;;7.45;5.93;;;26.80;1.00;;;;;;5034699;28;20052;-60
2023/07/15 02:12:44;;;;;;;7.05;5.47;;;26.70;1.00;;;;;;5035272;28;20029;-60
2023/07/15 02:15:10;;;;;;;8.23;5.90;;;26.80;1.00;;;;;;5034583;28;20021;-60
2023/07/15 02:17:35;;;;;;;7.13;5.85;;;26.80;1.00;;;;;;5035357;28;20038;-60
2023/07/15 02:20:04;;;;;;;10.00;6.18;;;26.80;1.00;;;;;;5028555;28;20049;-60
2023/07/15 02:22:30;;;;;;;6.55;5.82;;;26.70;1.00;;;;;;5026291;28;20430;-60
2023/07/15 02:24:56;;;;;;;6.30;5.68;;;26.70;1.00;;;;;;5032961;28;20037;-60
2023/07/15 02:27:21;;;;;;;6.68;5.40;;;26.70;1.00;;;;;;5035430;28;20033;-60
2023/07/15 02:29:47;;;;;;;8.82;6.18;;;26.70;1.00;;;;;;5033644;28;20551;-60
2023/07/15 02:32:39;;;;;;;6.30;5.70;;;26.70;1.00;;;;;;5032399;28;20108;-59
2023/07/15 02:35:08;;;;;;;10.80;6.43;;;26.70;1.00;;;;;;5034711;28;20025;-60
2023/07/15 02:37:35;;;;;;;7.65;6.50;;;26.60;1.00;;;;;;5033493;28;20387;-60
2023/07/15 02:40:03;;;;;;;7.72;5.85;;;26.70;1.00;;;;;;5033133;28;20091;-60
2023/07/15 02:42:29;;;;;;;7.57;5.35;;;26.70;1.00;;;;;;5034361;28;20353;-60
2023/07/15 02:44:54;;;;;;;6.97;6.22;;;26.70;1.00;;;;;;5035126;28;20155;-60
2023/07/15 02:47:20;;;;;;;6.50;5.90;;;26.70;1.00;;;;;;5033973;28;20037;-60
2023/07/15 02:49:46;;;;;;;7.18;5.82;;;26.70;1.00;;;;;;5030446;28;20079;-60
2023/07/15 02:52:12;;;;;;;7.50;5.88;;;26.70;1.00;;;;;;5031778;28;20879;-60
2023/07/15 02:54:37;;;;;;;8.23;6.10;;;26.70;1.00;;;;;;5033679;28;20026;-60
2023/07/15 02:57:03;;;;;;;10.00;6.75;;;26.70;1.00;;;;;;5024232;28;20105;-60
2023/07/15 02:59:29;;;;;;;8.00;5.38;;;26.60;1.00;;;;;;5029026;28;20391;-60
2023/07/15 03:01:55;;;;;;;7.18;5.80;;;26.70;1.00;;;;;;5032886;28;20025;-60
2023/07/15 03:04:20;;;;;;;9.27;5.63;;;26.60;1.00;;;;;;5033462;28;20072;-60
2023/07/15 03:06:46;;;;;;;6.53;5.75;;;26.70;1.00;;;;;;5034374;28;20160;-60
2023/07/15 03:09:11;;;;;;;5.70;5.10;;;26.60;1.00;;;;;;5033572;28;20075;-60
2023/07/15 03:11:37;;;;;;;7.72;5.93;;;26.60;1.00;;;;;;5034567;28;20487;-60
2023/07/15 03:14:03;;;;;;;7.72;6.00;;;26.60;1.00;;;;;;5031288;28;20026;-60
2023/07/15 03:16:29;;;;;;;6.45;5.75;;;26.60;1.00;;;;;;5034396;28;20053;-60
2023/07/15 03:18:55;;;;;;;6.70;5.53;;;26.60;1.00;;;;;;5033141;28;20435;-60
2023/07/15 03:21:20;;;;;;;7.03;5.65;;;26.60;1.00;;;;;;5034263;28;20389;-60
2023/07/15 03:23:46;;;;;;;6.85;6.15;;;26.60;1.00;;;;;;5034207;28;20029;-60
2023/07/15 03:26:12;;;;;;;6.50;5.90;;;26.60;1.00;;;;;;5032450;28;20062;-60
2023/07/15 03:28:37;;;;;;;7.07;5.85;;;26.50;1.00;;;;;;5033292;28;20037;-60
2023/07/15 03:31:04;;;;;;;6.93;5.90;;;26.50;1.00;;;;;;5032951;28;20017;-60
2023/07/15 03:33:30;;;;;;;7.88;5.80;;;26.50;1.00;;;;;;5025419;28;20029;-60
2023/07/15 03:35:58;;;;;;;7.03;6.20;;;26.50;1.00;;;;;;5029463;28;20082;-60
2023/07/15 03:38:23;;;;;;;8.35;6.13;;;26.50;1.00;;;;;;5032934;28;20022;-60
2023/07/15 03:40:49;;;;;;;7.28;6.18;;;26.40;1.00;;;;;;5033961;28;20139;-60
2023/07/15 03:43:16;;;;;;;7.18;5.85;;;26.40;1.00;;;;;;5032939;28;20471;-60
2023/07/15 03:45:42;;;;;;;6.20;5.65;;;26.40;1.00;;;;;;5033730;28;20110;-60
2023/07/15 03:48:08;;;;;;;8.93;6.00;;;26.40;1.00;;;;;;5032821;28;20171;-60
2023/07/15 03:50:35;;;;;;;6.30;5.25;;;26.40;1.00;;;;;;5034021;28;20025;-60
2023/07/15 03:53:00;;;;;;;6.55;5.57;;;26.40;1.00;;;;;;5018898;28;20034;-60
2023/07/15 03:55:26;;;;;;;8.45;5.55;;;26.30;1.00;;;;;;5033935;28;20108;-60
2023/07/15 03:57:52;;;;;;;6.28;5.40;;;26.30;1.00;;;;;;5032462;28;20065;-60
2023/07/15 04:00:18;;;;;;;7.13;6.10;;;26.30;1.00;;;;;;5033441;28;20416;-60
2023/07/15 04:02:49;;;;;;;6.80;6.20;;;26.30;1.00;;;;;;5031498;28;20056;-60
2023/07/15 04:05:15;;;;;;;6.93;5.43;;;26.40;1.00;;;;;;5033446;28;20459;-60
2023/07/15 04:07:41;;;;;;;7.18;6.28;;;26.30;1.00;;;;;;5032740;28;20045;-60
2023/07/15 04:10:07;;;;;;;6.45;5.85;;;26.30;1.00;;;;;;5032349;28;20061;-60
2023/07/15 04:12:32;;;;;;;7.18;6.40;;;26.30;1.00;;;;;;5033491;28;20048;-60
2023/07/15 04:14:58;;;;;;;7.50;5.95;;;26.30;1.00;;;;;;5032104;28;20088;-60
2023/07/15 04:17:24;;;;;;;7.10;5.95;;;26.20;1.00;;;;;;5032497;28;20422;-60
2023/07/15 04:19:49;;;;;;;8.35;6.10;;;26.20;1.00;;;;;;5032488;28;20064;-60
2023/07/15 04:22:15;;;;;;;8.60;6.50;;;26.30;1.00;;;;;;5033201;28;20041;-60
2023/07/15 04:24:40;;;;;;;8.57;6.53;;;26.20;1.00;;;;;;5032383;28;20021;-60
2023/07/15 04:27:06;;;;;;;8.52;7.43;;;26.20;1.00;;;;;;5030594;28;20045;-60
2023/07/15 04:29:32;;;;;;;11.88;8.13;;;26.20;1.00;;;;;;5023493;28;20033;-60
2023/07/15 04:31:58;;;;;;;9.57;6.90;;;26.20;1.00;;;;;;5032194;28;20029;-60
2023/07/15 04:34:24;;;;;;;8.65;7.43;;;26.20;1.00;;;;;;5031719;28;20026;-60
2023/07/15 04:36:49;;;;;;;9.00;7.68;;;26.20;1.00;;;;;;5030711;28;20078;-60
2023/07/15 04:39:15;;;;;;;8.75;7.68;;;26.30;1.00;;;;;;5033222;28;20109;-59
2023/07/15 04:41:41;;;;;;;10.23;7.45;;;26.30;1.00;;;;;;5031665;28;20053;-60
2023/07/15 04:44:06;;;;;;;10.43;7.18;;;26.30;1.00;;;;;;5032948;28;20124;-60
2023/07/15 04:46:32;;;;;;;11.10;7.35;;;26.30;1.00;;;;;;5019271;28;20044;-60
2023/07/15 04:48:58;;;;;;;7.80;6.85;;;26.30;1.00;;;;;;5036051;28;20496;-60
2023/07/15 04:51:24;;;;;;;12.93;7.40;;;26.30;1.00;;;;;;5036386;28;20090;-60
2023/07/15 04:53:49;;;;;;;11.85;8.20;;;26.30;1.00;;;;;;5035769;28;20041;-60
2023/07/15 04:56:15;;;;;;;9.68;8.02;;;26.20;1.00;;;;;;5036253;28;20134;-60
2023/07/15 04:58:41;;;;;;;9.90;8.35;;;26.30;1.00;;;;;;5034102;28;20147;-60
2023/07/15 05:01:06;;;;;;;9.02;7.47;;;26.40;1.00;;;;;;5036861;28;20037;-60
2023/07/15 05:03:33;;;;;;;8.95;8.00;;;26.40;1.00;;;;;;5035323;28;20032;-60
2023/07/15 05:05:59;;;;;;;8.32;7.43;;;26.50;1.00;;;;;;5035873;28;20108;-60
2023/07/15 05:08:24;;;;;;;11.07;8.40;;;26.40;1.00;;;;;;5036585;28;20057;-60
2023/07/15 05:10:51;;;;;;;9.68;7.55;;;26.50;1.00;;;;;;5035809;28;20055;-60
2023/07/15 05:13:17;;;;;;;8.93;8.02;;;26.50;1.00;;;;;;5036513;28;20030;-60
2023/07/15 05:15:43;;;;;;;10.93;9.23;;;26.50;1.00;;;;;;5034720;28;20024;-60
2023/07/15 05:18:09;;;;;;;11.07;8.38;;;26.50;1.00;;;;;;5036597;28;20523;-60
2023/07/15 05:20:35;;;;;;;11.07;7.90;;;26.50;1.00;;;;;;5023198;28;20066;-60
2023/07/15 05:23:02;;;;;;;10.13;8.43;;;26.50;1.00;;;;;;5035610;28;20029;-60
2023/07/15 05:25:31;;;;;;;9.30;8.23;;;26.50;1.00;;;;;;5036409;28;20033;-60
2023/07/15 05:27:57;;;;;;;9.00;8.10;;;26.60;1.00;;;;;;5028549;28;20495;-60
2023/07/15 05:30:23;;;;;;;10.25;7.90;;;26.50;1.00;;;;;;5028633;28;20104;-60
2023/07/15 05:32:50;;;;;;;7.88;7.05;;;26.60;1.00;;;;;;5034427;28;20022;-60
2023/07/15 05:35:16;;;;;;;9.15;7.50;;;26.60;1.00;;;;;;5036338;28;20025;-60
2023/07/15 05:37:42;;;;;;;8.27;7.45;;;26.70;1.00;;;;;;5035223;28;20060;-60
2023/07/15 05:40:12;;;;;;;11.95;8.13;;;26.50;1.00;;;;;;5036197;28;20056;-60
2023/07/15 05:42:39;;;;;;;9.20;8.32;;;26.50;1.00;;;;;;5035119;28;20359;-60
2023/07/15 05:45:05;;;;;;;8.60;7.80;;;26.60;1.00;;;;;;5035780;28;20112;-60
2023/07/15 05:47:31;;;;;;;9.43;8.48;;;26.50;1.00;;;;;;5033465;28;20091;-60
2023/07/15 05:49:57;;;;;;;10.48;8.35;;;26.50;1.00;;;;;;5036292;28;20108;-60
2023/07/15 05:52:22;;;;;;;12.40;8.80;;;26.50;1.00;;;;;;5035415;28;20127;-60
2023/07/15 05:54:48;;;;;;;12.98;8.75;;;26.50;1.00;;;;;;5036171;28;20048;-60
2023/07/15 05:57:13;;;;;;;12.93;9.02;;;26.60;1.00;;;;;;5033582;28;20029;-60
2023/07/15 05:59:39;;;;;;;9.95;8.25;;;26.60;1.00;;;;;;5033611;28;20049;-60
2023/07/15 06:02:05;;;;;;;8.93;8.02;;;26.70;1.00;;;;;;5033520;28;20040;-60
2023/07/15 06:04:31;;;;;;;11.20;8.25;;;26.70;1.00;;;;;;5020459;28;20030;-60
2023/07/15 06:06:57;;;;;;;11.73;8.45;;;26.70;1.00;;;;;;5032707;28;20376;-59
2023/07/15 06:09:22;;;;;;;9.95;8.95;;;26.60;1.00;;;;;;5035539;28;20049;-60
2023/07/15 06:11:48;;;;;;;8.93;7.60;;;26.60;1.00;;;;;;5034733;28;20112;-60
2023/07/15 06:14:14;;;;;;;10.60;9.45;;;26.70;1.00;;;;;;5035853;28;20037;-60
2023/07/15 06:16:39;;;;;;;9.07;8.00;;;26.70;1.00;;;;;;5034857;28;20041;-60
2023/07/15 06:19:05;;;;;;;9.25;8.35;;;26.60;1.00;;;;;;5034460;28;20056;-60
2023/07/15 06:21:30;;;;;;;11.20;8.63;;;26.70;1.00;;;;;;5034006;28;20667;-60
2023/07/15 06:23:56;;;;;;;12.68;8.40;;;26.80;1.00;;;;;;5035346;28;20490;-60
2023/07/15 06:26:22;;;;;;;10.15;8.95;;;26.90;1.00;;;;;;5034371;28;20064;-60
2023/07/15 06:28:47;;;;;;;10.32;9.32;;;26.90;1.00;;;;;;5035459;28;20030;-60
2023/07/15 06:31:13;;;;;;;13.13;9.20;;;26.90;1.00;;;;;;5034340;28;20029;-60
2023/07/15 06:33:39;;;;;;;10.43;8.55;;;27.00;1.00;;;;;;5035106;28;20060;-60
2023/07/15 06:36:06;;;;;;;9.45;7.95;;;27.10;1.00;;;;;;5033115;28;20029;-60
2023/07/15 06:38:32;;;;;;;10.77;9.35;;;27.10;1.00;;;;;;5033822;28;20034;-60
2023/07/15 06:40:58;;;;;;;10.70;9.65;;;27.20;1.00;;;;;;5034354;28;20391;-60
2023/07/15 06:43:23;;;;;;;13.27;9.23;;;27.20;1.00;;;;;;5034817;28;20037;-60
2023/07/15 06:45:49;;;;;;;12.57;8.85;;;27.30;1.00;;;;;;5033845;28;20028;-60
2023/07/15 06:48:17;;;;;;;13.35;9.25;;;27.50;1.00;;;;;;5034994;28;20108;-60
2023/07/15 06:50:43;;;;;;;14.23;11.00;;;27.50;1.00;;;;;;5034003;28;20067;-60
2023/07/15 06:53:09;;;;;;;11.02;9.85;;;27.60;1.00;;;;;;5034041;28;20124;-60
2023/07/15 06:55:35;;;;;;;10.55;9.43;;;27.60;1.00;;;;;;5033663;28;20117;-60
2023/07/15 06:58:02;;;;;;;13.82;9.70;;;27.60;1.00;;;;;;5033191;28;20380;-60
2023/07/15 07:00:31;;;;;;;11.63;10.43;;;27.50;1.00;;;;;;5034540;28;20475;-60
2023/07/15 07:02:58;;;;;;;10.73;9.63;;;27.50;1.00;;;;;;5034056;28;20041;-60
2023/07/15 07:05:25;;;;;;;11.05;9.85;;;27.50;1.00;;;;;;5034594;28;20021;-60
2023/07/15 07:07:51;;;;;;;10.93;9.82;;;27.50;1.00;;;;;;5033043;28;20045;-60
2023/07/15 07:10:17;;;;;;;13.05;9.93;;;27.50;1.00;;;;;;5034059;28;20112;-60
2023/07/15 07:12:43;;;;;;;11.85;10.38;;;27.50;1.00;;;;;;5028653;28;20108;-60
2023/07/15 07:15:09;;;;;;;12.75;10.80;;;27.40;1.00;;;;;;5033526;28;20032;-60
2023/07/15 07:17:34;;;;;;;15.18;10.55;;;27.40;1.00;;;;;;5033147;28;20151;-60
2023/07/15 07:20:00;;;;;;;11.13;9.95;;;27.50;1.00;;;;;;5030382;28;20033;-60
2023/07/15 07:22:26;;;;;;;11.85;10.45;;;27.50;1.00;;;;;;5031970;28;20053;-60
2023/07/15 07:24:53;;;;;;;12.85;10.10;;;27.60;1.00;;;;;;5020269;28;20018;-60
2023/07/15 07:27:19;;;;;;;13.00;10.88;;;27.70;1.00;;;;;;5033156;28;20037;-60
2023/07/15 07:29:45;;;;;;;13.45;9.65;;;27.70;1.00;;;;;;5034121;28;20348;-60
2023/07/15 07:32:10;;;;;;;13.10;10.32;;;27.80;1.00;;;;;;5026225;28;20029;-60
2023/07/15 07:34:36;;;;;;;11.30;9.57;;;27.80;1.00;;;;;;5029745;28;20028;-60
2023/07/15 07:37:02;;;;;;;12.30;10.02;;;27.80;1.00;;;;;;5032613;28;20040;-60
2023/07/15 07:39:28;;;;;;;9.35;8.45;;;27.80;1.00;;;;;;5034241;28;20030;-60
2023/07/15 07:41:54;;;;;;;11.95;10.75;;;27.80;1.00;;;;;;5032889;28;20517;-60
2023/07/15 07:44:20;;;;;;;13.48;9.73;;;27.80;1.00;;;;;;5033663;28;20104;-60
2023/07/15 07:46:46;;;;;;;13.13;10.95;;;27.70;1.00;;;;;;5032347;28;20141;-60
2023/07/15 07:49:12;;;;;;;12.18;9.65;;;27.80;1.00;;;;;;5033900;28;20043;-60
2023/07/15 07:51:38;;;;;;;13.25;9.07;;;27.80;1.00;;;;;;5033025;28;20459;-60
2023/07/15 07:54:03;;;;;;;10.07;9.07;;;27.90;1.00;;;;;;5028858;28;20029;-60
2023/07/15 07:56:29;;;;;;;11.20;8.70;;;27.90;1.00;;;;;;5032698;28;21017;-60
2023/07/15 07:58:57;;;;;;;12.05;10.05;;;28.00;1.00;;;;;;5033360;28;20069;-60
2023/07/15 08:01:27;;;;;;;10.77;8.77;;;27.90;1.00;;;;;;5032704;28;20025;-60
2023/07/15 08:03:54;;;;;;;10.43;8.77;;;28.00;1.00;;;;;;5031123;28;20021;-60
2023/07/15 08:06:23;;;;;;;8.55;7.05;;;28.00;1.00;;;;;;5023836;28;20041;-60
2023/07/15 08:08:49;;;;;;;10.05;8.82;;;28.00;1.00;;;;;;5033419;28;20485;-60
2023/07/15 08:11:15;;;;;;;10.32;8.88;;;28.10;1.00;;;;;;5032552;28;20116;-60
2023/07/15 08:13:41;;;;;;;10.43;8.15;;;28.00;1.00;;;;;;5032964;28;20387;-60
2023/07/15 08:16:27;;;;;;;10.82;8.60;;;28.10;1.00;;;;;;5031103;28;20037;-60
2023/07/15 08:18:52;;;;;;;12.13;10.20;;;28.20;1.00;;;;;;5033700;28;20156;-60
2023/07/15 08:21:18;;;;;;;10.57;8.55;;;28.10;1.00;;;;;;5032948;28;20336;-60
2023/07/15 08:23:44;;;;;;;11.27;10.05;;;28.10;1.00;;;;;;5032052;28;20134;-60
2023/07/15 08:26:09;;;;;;;12.00;10.27;;;28.20;1.00;;;;;;5031070;28;20364;-60
2023/07/15 08:28:35;;;;;;;9.77;7.47;;;28.20;1.00;;;;;;5030764;28;20033;-66
2023/07/15 08:31:01;;;;;;;6.90;5.50;;;28.30;1.00;;;;;;5031889;28;20025;-59
2023/07/15 08:33:26;;;;;;;9.23;8.32;;;28.30;1.00;;;;;;5032064;28;20033;-67
2023/07/15 08:35:52;;;;;;;10.88;8.52;;;28.30;1.00;;;;;;5033023;28;20519;-62
2023/07/15 08:38:17;;;;;;;11.20;7.47;;;28.30;1.00;;;;;;5031644;28;20120;-67
2023/07/15 08:40:46;;;;;;;10.50;8.82;;;28.30;1.00;;;;;;5026608;28;20021;-73
2023/07/15 08:43:13;;;;;;;9.75;7.57;;;28.40;1.00;;;;;;5026275;28;20034;-61
2023/07/15 08:45:38;;;;;;;13.38;9.45;;;28.60;1.00;;;;;;5030824;28;20100;-73
2023/07/15 08:48:06;;;;;;;9.80;7.22;;;28.70;1.00;;;;;;5018910;28;20145;-73
2023/07/15 08:50:35;;;;;;;11.15;8.77;;;28.80;1.00;;;;;;5032162;28;20071;-73
2023/07/15 08:53:02;;;;;;;11.63;8.57;;;28.90;1.00;;;;;;5020349;28;20026;-74
2023/07/15 08:55:30;;;;;;;12.85;9.18;;;29.00;1.00;;;;;;5017536;28;20536;-74
2023/07/15 08:57:59;;;;;;;8.38;7.43;;;29.00;1.00;;;;;;5029937;28;20049;-74
2023/07/15 09:00:25;;;;;;;8.65;7.75;;;29.00;1.00;;;;;;5032845;28;20037;-73
2023/07/15 09:02:51;;;;;;;9.10;8.13;;;29.00;1.00;;;;;;5031990;28;20014;-76
2023/07/15 09:05:17;;;;;;;10.05;7.88;;;29.00;1.00;;;;;;5031190;28;20044;-76
2023/07/15 09:07:52;;;;;;;8.75;7.85;;;29.00;1.00;;;;;;5031777;28;20046;-75
2023/07/15 09:10:18;;;;;;;9.70;8.68;;;29.00;1.00;;;;;;5032641;28;20036;-76
2023/07/15 09:12:52;;;;;;;13.60;10.15;;;29.10;1.00;;;;;;5030910;28;20017;-75
2023/07/15 09:15:17;;;;;;;9.77;7.35;;;29.00;1.00;;;;;;5032755;28;20483;-75
2023/07/15 09:17:59;;;;;;;9.32;8.38;;;29.00;1.00;;;;;;5031013;28;20111;-75
2023/07/15 09:20:26;;;;;;;17.98;9.18;;;29.10;1.00;;;;;;5031892;28;20033;-75
2023/07/15 09:22:54;;;;;;;9.25;8.25;;;29.10;1.00;;;;;;5023442;28;20041;-70
2023/07/15 09:25:22;;;;;;;12.07;8.10;;;29.10;1.00;;;;;;5032938;28;20032;-71
2023/07/15 09:27:48;;;;;;;8.90;7.60;;;29.30;1.00;;;;;;5030770;28;20034;-71
2023/07/15 09:30:14;;;;;;;10.25;6.90;;;29.90;1.00;;;;;;5031123;28;20032;-70
2023/07/15 09:32:40;;;;;;;8.88;7.85;;;30.30;1.00;;;;;;5031796;28;20033;-70
2023/07/15 09:35:07;;;;;;;11.00;6.97;;;30.30;1.00;;;;;;5033971;28;20022;-70
2023/07/15 09:37:33;;;;;;;11.43;8.57;;;30.50;1.00;;;;;;5033203;28;20430;-70
2023/07/15 09:40:01;;;;;;;10.40;9.50;;;30.30;1.00;;;;;;5036074;28;20494;-71
2023/07/15 09:42:27;;;;;;;11.65;8.68;;;30.10;1.00;;;;;;5035493;28;20037;-70
2023/07/15 09:44:53;;;;;;;10.45;8.18;;;30.30;1.00;;;;;;5034580;28;20087;-70
2023/07/15 09:47:20;;;;;;;9.15;8.25;;;30.60;1.00;;;;;;5032965;28;20487;-70
2023/07/15 09:49:46;;;;;;;11.45;8.98;;;30.40;1.00;;;;;;5035979;28;20490;-70
2023/07/15 09:52:14;;;;;;;11.10;8.88;;;30.80;1.00;;;;;;5034412;28;20030;-70
2023/07/15 09:54:41;;;;;;;9.70;7.55;;;31.00;99.90;;;;;;5024143;28;20387;-71
2023/07/15 09:57:13;;;;;;;14.32;7.60;;;31.40;99.90;;;;;;5028978;28;20033;-72
2023/07/15 09:59:45;;;;;;;9.68;7.45;;;31.50;99.90;;;;;;5006090;28;20042;-71
2023/07/15 10:02:26;;;;;;;12.40;8.20;;;31.40;99.90;;;;;;5012382;28;20040;-71
2023/07/15 10:05:00;;;;;;;9.45;6.90;;;31.30;99.90;;;;;;5015984;28;20036;-71
2023/07/15 10:07:27;;;;;;;11.82;9.73;;;31.40;99.90;;;;;;5013588;28;20572;-71
2023/07/15 10:09:53;;;;;;;8.77;7.97;;;32.00;99.90;;;;;;5015927;28;20026;-71
2023/07/15 10:12:19;;;;;;;10.75;9.48;;;32.00;99.90;;;;;;5014623;28;20040;-71
2023/07/15 10:14:45;;;;;;;10.80;8.27;;;31.70;99.90;;;;;;5015752;28;20026;-71
2023/07/15 10:17:15;;;;;;;7.97;7.13;;;30.50;99.90;;;;;;5014649;28;20384;-70
2023/07/15 10:19:52;;;;;;;8.05;7.13;;;30.40;99.90;;;;;;5013308;28;20061;-70
2023/07/15 10:22:23;;;;;;;10.77;7.68;;;31.30;99.90;;;;;;5014607;28;20335;-71
2023/07/15 10:24:57;;;;;;;16.52;8.90;;;31.50;99.90;;;;;;5015647;28;20049;-71
2023/07/15 10:27:30;;;;;;;9.07;8.15;;;31.20;99.90;;;;;;5014650;28;20537;-71
2023/07/15 10:30:14;;;;;;;8.90;8.07;;;31.40;99.90;;;;;;5015641;28;20033;-71
2023/07/15 10:33:05;;;;;;;8.30;6.55;;;31.80;99.90;;;;;;5011660;28;20037;-71
2023/07/15 10:35:44;;;;;;;8.95;8.07;;;32.20;99.90;;;;;;5013457;28;20026;-71
2023/07/15 10:38:29;;;;;;;11.30;7.95;;;31.70;99.90;;;;;;5013789;28;20033;-71
2023/07/15 10:41:05;;;;;;;9.15;7.15;;;31.90;99.90;;;;;;5014516;28;20018;-71
2023/07/15 10:43:33;;;;;;;9.73;7.32;;;32.20;99.90;;;;;;5002411;28;20029;-70
2023/07/15 10:46:06;;;;;;;8.80;6.93;;;32.30;99.90;;;;;;5012793;28;20495;-71
2023/07/15 10:48:32;;;;;;;7.95;7.15;;;32.30;99.90;;;;;;5013917;28;21596;-71
2023/07/15 10:51:10;;;;;;;8.85;6.95;;;32.60;99.90;;;;;;5015125;28;20061;-71
2023/07/15 10:53:36;;;;;;;8.10;7.35;;;32.70;99.90;;;;;;5013990;28;20030;-71
2023/07/15 10:56:06;;;;;;;9.32;6.53;;;33.00;99.90;;;;;;5014038;28;20014;-71
2023/07/15 10:58:33;;;;;;;8.95;7.60;;;32.80;99.90;;;;;;5010711;28;20136;-71
2023/07/15 11:01:01;;;;;;;9.02;7.50;;;32.70;99.90;;;;;;5034786;28;20034;-71
2023/07/15 11:03:31;;;;;;;8.88;7.80;;;32.70;99.90;;;;;;5033730;28;20117;-71
2023/07/15 11:06:01;;;;;;;8.90;6.90;;;33.10;99.90;;;;;;5035242;28;20024;-71
2023/07/15 11:08:28;;;;;;;7.25;6.55;;;33.00;99.90;;;;;;5032524;28;20086;-71
2023/07/15 11:11:08;;;;;;;15.38;8.32;;;34.30;99.90;;;;;;5034509;28;20050;-71
2023/07/15 11:13:39;;;;;;;8.80;7.35;;;32.70;99.90;;;;;;5033523;28;20450;-71
2023/07/15 11:16:05;;;;;;;12.35;8.43;;;32.30;99.90;;;;;;5034394;28;20068;-71
2023/07/15 11:18:31;;;;;;;13.73;7.97;;;32.40;99.90;;;;;;5033544;28;20064;-72
2023/07/15 11:20:59;;;;;;;8.73;6.63;;;32.60;99.90;;;;;;5027055;28;20065;-71
2023/07/15 11:23:28;;;;;;;11.10;6.50;;;33.40;99.90;;;;;;5027120;28;20109;-72
2023/07/15 11:25:54;;;;;;;8.07;6.53;;;33.70;99.90;;;;;;5031978;28;20033;-71
2023/07/15 11:28:20;;;;;;;9.93;7.00;;;33.60;99.90;;;;;;5031460;28;20398;-70
2023/07/15 11:30:48;;;;;;;10.13;7.10;;;33.70;99.90;;;;;;5032250;28;20022;-70
2023/07/15 11:33:14;;;;;;;8.50;7.68;;;36.60;99.90;;;;;;5033461;28;20049;-70
2023/07/15 11:35:41;;;;;;;12.00;7.63;;;37.40;99.90;;;;;;5033008;28;20514;-70
2023/07/15 11:38:14;;;;;;;8.65;7.82;;;40.50;99.90;;;;;;5028821;28;20051;-70
2023/07/15 11:40:56;;;;;;;9.57;7.77;;;40.60;99.90;;;;;;5025215;28;20029;-71
2023/07/15 11:43:24;;;;;;;9.40;7.55;;;40.60;99.90;;;;;;5030299;28;20104;-70
2023/07/15 11:45:54;;;;;;;14.52;8.48;;;41.40;99.90;;;;;;5032493;28;20458;-71
2023/07/15 11:48:24;;;;;;;9.73;8.10;;;43.10;99.90;;;;;;5032241;28;20033;-71
2023/07/15 11:50:50;;;;;;;9.98;7.97;;;45.20;99.90;;;;;;5032934;28;20057;-71
2023/07/15 11:53:33;;;;;;;10.13;7.70;;;45.80;99.90;;;;;;5031835;28;20088;-71
2023/07/15 11:56:00;;;;;;;9.85;8.85;;;47.00;99.90;;;;;;5033576;28;20514;-71
2023/07/15 11:58:44;;;;;;;11.63;8.95;;;47.20;99.90;;;;;;5031551;28;20049;-71
2023/07/15 12:01:18;;;;;;;8.45;7.65;;;43.00;99.90;;;;;;5033384;28;20150;-71
2023/07/15 12:03:44;;;;;;;7.63;6.88;;;42.50;99.90;;;;;;5032170;28;20025;-71
2023/07/15 12:06:18;;;;;;;8.35;7.75;;;42.30;99.90;;;;;;5032037;28;20048;-71
2023/07/15 12:09:07;;;;;;;9.50;8.45;;;43.60;99.90;;;;;;5030415;28;20060;-71
2023/07/15 12:11:34;;;;;;;10.73;8.48;;;45.40;99.90;;;;;;5033465;28;20067;-71
2023/07/15 12:14:01;;;;;;;9.50;8.60;;;46.10;99.90;;;;;;5032298;28;20637;-71
2023/07/15 12:16:28;;;;;;;8.52;7.82;;;46.30;99.90;;;;;;5033605;28;20038;-71
2023/07/15 12:18:54;;;;;;;9.10;7.72;;;46.10;99.90;;;;;;5032272;28;20467;-71
2023/07/15 12:21:20;;;;;;;9.27;8.43;;;45.30;99.90;;;;;;5033540;28;20026;-72
2023/07/15 12:23:46;;;;;;;10.13;7.88;;;43.30;99.90;;;;;;5031717;28;20032;-71
2023/07/15 12:26:12;;;;;;;7.90;7.15;;;41.30;99.90;;;;;;5033211;28;20114;-71
2023/07/15 12:28:37;;;;;;;7.80;6.50;;;41.40;99.90;;;;;;5030795;28;20033;-72
2023/07/15 12:31:03;;;;;;;8.20;7.43;;;41.50;99.90;;;;;;5032381;28;20067;-71
2023/07/15 12:33:29;;;;;;;8.27;6.80;;;41.10;99.90;;;;;;5032466;28;20083;-71
2023/07/15 12:35:55;;;;;;;8.57;7.30;;;40.40;99.90;;;;;;5033078;28;20487;-71
2023/07/15 12:38:21;;;;;;;10.30;7.22;;;40.70;99.90;;;;;;5032111;28;20051;-71
2023/07/15 12:40:46;;;;;;;10.05;7.75;;;41.30;99.90;;;;;;5032410;28;20451;-71
2023/07/15 12:43:13;;;;;;;7.55;6.85;;;42.20;99.90;;;;;;5018157;28;20036;-71
2023/07/15 12:45:38;;;;;;;7.15;6.40;;;42.10;99.90;;;;;;5032986;28;20037;-71
2023/07/15 12:48:05;;;;;;;9.00;7.05;;;42.20;99.90;;;;;;5032171;28;20042;-71
2023/07/15 12:50:30;;;;;;;7.50;6.80;;;40.80;99.90;;;;;;5029813;28;20449;-71
2023/07/15 12:52:56;;;;;;;6.88;6.28;;;40.30;99.90;;;;;;5031429;28;20049;-71